createdAt,value
2019-05-26T00:02:23.595Z,11.80
2019-05-26T00:04:53.964Z,12.10
2019-05-26T00:07:30.485Z,13.43
2019-05-26T00:09:55.547Z,12.13
2019-05-26T00:12:25.898Z,11.83
2019-05-26T00:14:56.256Z,11.00
2019-05-26T00:17:26.576Z,11.18
2019-05-26T00:19:56.928Z,11.63
2019-05-26T00:22:27.270Z,12.53
2019-05-26T00:24:57.627Z,12.57
2019-05-26T00:27:27.989Z,11.63
2019-05-26T00:29:58.331Z,10.83
2019-05-26T00:32:28.689Z,10.80
2019-05-26T00:34:59.035Z,9.13
2019-05-26T00:37:28.727Z,8.77
2019-05-26T00:39:58.968Z,8.73
2019-05-26T00:42:28.634Z,9.07
2019-05-26T00:44:58.890Z,8.10
2019-05-26T00:47:29.228Z,8.77
2019-05-26T00:49:59.578Z,9.60
2019-05-26T00:52:29.257Z,10.07
2019-05-26T00:54:59.522Z,9.53
2019-05-26T00:57:30.131Z,9.48
2019-05-26T00:59:59.837Z,9.93
2019-05-26T01:02:29.479Z,10.17
2019-05-26T01:04:59.041Z,8.70
2019-05-26T01:07:29.275Z,9.63
2019-05-26T01:09:58.971Z,9.10
2019-05-26T01:12:28.591Z,9.33
2019-05-26T01:14:58.868Z,9.13
2019-05-26T01:17:29.210Z,8.95
2019-05-26T01:19:59.589Z,9.53
2019-05-26T01:22:29.299Z,10.07
2019-05-26T01:24:59.535Z,10.10
2019-05-26T01:27:30.053Z,10.33
2019-05-26T01:29:59.724Z,11.23
2019-05-26T01:32:29.306Z,12.00
2019-05-26T01:34:59.641Z,11.87
2019-05-26T01:37:29.993Z,12.33
2019-05-26T01:39:59.729Z,11.50
2019-05-26T01:42:29.334Z,12.57
2019-05-26T01:44:59.607Z,13.07
2019-05-26T01:47:29.946Z,13.07
2019-05-26T01:49:59.630Z,12.40
2019-05-26T01:52:29.864Z,12.77
2019-05-26T01:54:59.573Z,13.13
2019-05-26T01:57:29.150Z,12.03
2019-05-26T01:59:59.398Z,10.97
2019-05-26T02:02:29.045Z,12.17
2019-05-26T02:04:59.306Z,11.53
2019-05-26T02:07:29.635Z,11.97
2019-05-26T02:10:00.016Z,12.03
2019-05-26T02:12:29.703Z,12.20
2019-05-26T02:14:59.957Z,12.10
2019-05-26T02:17:30.298Z,10.07
2019-05-26T02:20:00.005Z,10.53
2019-05-26T02:22:29.594Z,10.57
2019-05-26T02:24:59.841Z,9.20
2019-05-26T02:27:30.144Z,9.93
2019-05-26T02:29:59.849Z,6.93
2019-05-26T02:32:29.523Z,8.70
2019-05-26T02:34:59.791Z,9.27
2019-05-26T02:37:30.131Z,7.80
2019-05-26T02:40:00.436Z,6.97
2019-05-26T02:42:30.960Z,6.57
2019-05-26T02:45:00.634Z,6.80
2019-05-26T02:47:30.230Z,7.17
2019-05-26T02:50:00.466Z,6.07
2019-05-26T02:52:30.822Z,5.77
2019-05-26T02:55:00.501Z,5.17
2019-05-26T02:57:30.731Z,5.83
2019-05-26T03:00:00.407Z,7.43
2019-05-26T03:02:30.010Z,6.87
2019-05-26T03:05:00.264Z,6.70
2019-05-26T03:07:31.376Z,7.30
2019-05-26T03:10:01.084Z,7.43
2019-05-26T03:12:33.715Z,7.33
2019-05-26T03:15:04.591Z,8.03
2019-05-26T03:17:35.571Z,7.03
2019-05-26T03:20:06.519Z,7.63
2019-05-26T03:22:37.207Z,7.93
2019-05-26T03:25:07.623Z,7.87
2019-05-26T03:27:37.288Z,8.47
2019-05-26T03:30:08.247Z,8.57
2019-05-26T03:32:38.713Z,8.90
2019-05-26T03:35:09.555Z,8.47
2019-05-26T03:37:40.055Z,8.43
2019-05-26T03:40:10.794Z,8.23
2019-05-26T03:42:42.886Z,7.70
2019-05-26T03:45:14.469Z,8.10
2019-05-26T03:47:44.724Z,7.67
2019-05-26T03:50:15.142Z,8.23
2019-05-26T03:52:45.482Z,8.00
2019-05-26T03:55:16.011Z,7.73
2019-05-26T03:57:46.344Z,8.47
2019-05-26T04:00:16.902Z,8.80
2019-05-26T04:02:47.201Z,8.07
2019-05-26T04:05:17.533Z,9.23
2019-05-26T04:07:47.863Z,8.83
2019-05-26T04:10:18.215Z,8.17
2019-05-26T04:12:48.526Z,9.10
2019-05-26T04:15:18.954Z,9.03
2019-05-26T04:17:49.279Z,9.80
2019-05-26T04:20:20.398Z,9.07
2019-05-26T04:22:50.648Z,10.37
2019-05-26T04:25:21.048Z,9.10
2019-05-26T04:27:51.355Z,8.90
2019-05-26T04:30:21.689Z,9.53
2019-05-26T04:32:51.372Z,9.13
2019-05-26T04:35:21.631Z,9.20
2019-05-26T04:37:51.311Z,7.97
2019-05-26T04:40:26.934Z,8.27
2019-05-26T04:42:52.836Z,7.93
2019-05-26T04:45:22.435Z,8.00
2019-05-26T04:47:52.031Z,8.57
2019-05-26T04:50:22.279Z,8.23
2019-05-26T04:53:05.251Z,7.97
2019-05-26T04:55:23.841Z,6.93
2019-05-26T04:57:54.189Z,6.70
2019-05-26T05:00:23.897Z,7.37
2019-05-26T05:02:53.479Z,6.67
2019-05-26T05:05:23.743Z,6.80
2019-05-26T05:07:54.040Z,6.53
2019-05-26T05:10:24.389Z,7.07
2019-05-26T05:12:54.092Z,6.53
2019-05-26T05:15:24.534Z,6.47
2019-05-26T05:17:54.181Z,5.77
2019-05-26T05:20:23.742Z,5.97
2019-05-26T05:22:53.350Z,5.97
2019-05-26T05:25:23.570Z,5.07
2019-05-26T05:27:53.602Z,5.43
2019-05-26T05:30:23.492Z,4.93
2019-05-26T05:32:54.182Z,4.53
2019-05-26T05:35:23.954Z,5.13
2019-05-26T05:37:54.512Z,5.33
2019-05-26T05:40:24.841Z,6.23
2019-05-26T05:42:55.272Z,6.03
2019-05-26T05:45:25.599Z,6.57
2019-05-26T05:47:56.354Z,6.13
2019-05-26T05:50:26.789Z,5.58
2019-05-26T05:52:56.785Z,6.83
2019-05-26T05:55:27.063Z,7.60
2019-05-26T05:57:57.523Z,7.33
2019-05-26T06:00:27.946Z,7.87
2019-05-26T06:02:58.366Z,7.40
2019-05-26T06:05:28.057Z,7.42
2019-05-26T06:07:57.850Z,7.87
2019-05-26T06:10:28.110Z,7.57
2019-05-26T06:12:58.716Z,6.27
2019-05-26T06:15:29.068Z,7.77
2019-05-26T06:17:59.637Z,7.00
2019-05-26T06:20:29.989Z,7.23
2019-05-26T06:23:00.654Z,7.97
2019-05-26T06:25:31.097Z,7.90
2019-05-26T06:28:01.768Z,8.73
2019-05-26T06:30:32.118Z,9.70
2019-05-26T06:33:02.135Z,9.23
2019-05-26T06:35:32.972Z,9.40
2019-05-26T06:38:02.961Z,8.93
2019-05-26T06:40:33.266Z,9.27
2019-05-26T06:43:02.992Z,8.50
2019-05-26T06:45:33.382Z,8.60
2019-05-26T06:48:03.161Z,9.93
2019-05-26T06:50:33.472Z,9.53
2019-05-26T06:53:03.211Z,10.87
2019-05-26T06:55:32.881Z,10.57
2019-05-26T06:58:02.558Z,11.10
2019-05-26T07:00:32.829Z,11.30
2019-05-26T07:03:02.647Z,11.83
2019-05-26T07:05:33.005Z,12.93
2019-05-26T07:08:03.336Z,11.60
2019-05-26T07:10:33.679Z,12.23
2019-05-26T07:13:03.437Z,12.63
2019-05-26T07:15:33.715Z,12.97
2019-05-26T07:18:03.447Z,12.73
2019-05-26T07:20:33.141Z,12.70
2019-05-26T07:23:04.134Z,12.07
2019-05-26T07:25:35.147Z,9.70
2019-05-26T07:28:05.783Z,10.33
2019-05-26T07:30:36.161Z,10.73
2019-05-26T07:33:05.964Z,11.23
2019-05-26T07:35:36.246Z,11.70
2019-05-26T07:38:06.729Z,11.73
2019-05-26T07:40:37.105Z,11.87
2019-05-26T07:43:07.589Z,10.97
2019-05-26T07:45:37.952Z,10.90
2019-05-26T07:48:07.713Z,10.00
2019-05-26T07:50:38.096Z,9.40
2019-05-26T07:53:07.887Z,8.33
2019-05-26T07:55:38.212Z,7.43
2019-05-26T07:58:07.949Z,5.90
2019-05-26T08:00:38.198Z,5.83
2019-05-26T08:03:08.464Z,5.93
2019-05-26T08:05:38.844Z,5.67
2019-05-26T08:08:13.365Z,5.53
2019-05-26T08:10:40.501Z,5.10
2019-05-26T08:13:10.235Z,4.83
2019-05-26T08:15:40.584Z,5.03
2019-05-26T08:18:10.309Z,4.53
2019-05-26T08:20:42.673Z,4.83
2019-05-26T08:23:13.033Z,4.90
2019-05-26T08:25:43.460Z,4.80
2019-05-26T08:28:13.834Z,4.43
2019-05-26T08:30:44.138Z,4.20
2019-05-26T08:33:14.484Z,3.50
2019-05-26T08:35:44.807Z,4.63
2019-05-26T08:38:15.185Z,4.10
2019-05-26T08:40:45.532Z,4.80
2019-05-26T08:43:15.239Z,4.37
2019-05-26T08:45:45.479Z,5.03
2019-05-26T08:48:15.867Z,4.03
2019-05-26T08:50:46.237Z,4.27
2019-05-26T08:53:16.784Z,3.70
2019-05-26T08:55:46.477Z,3.90
2019-05-26T08:58:16.739Z,3.87
2019-05-26T09:00:46.417Z,4.60
2019-05-26T09:03:16.023Z,4.00
2019-05-26T09:05:46.271Z,3.50
2019-05-26T09:08:16.655Z,4.00
2019-05-26T09:10:46.335Z,2.90
2019-05-26T09:13:16.580Z,3.80
2019-05-26T09:15:46.305Z,3.10
2019-05-26T09:18:16.577Z,3.53
2019-05-26T09:20:46.921Z,2.93
2019-05-26T09:23:17.297Z,2.87
2019-05-26T09:25:46.988Z,2.47
2019-05-26T09:28:16.595Z,2.57
2019-05-26T09:30:46.176Z,2.10
2019-05-26T09:33:15.817Z,2.43
2019-05-26T09:35:46.042Z,1.80
2019-05-26T09:38:15.759Z,1.70
2019-05-26T09:40:45.392Z,1.60
2019-05-26T09:43:16.738Z,2.00
2019-05-26T09:45:46.524Z,2.03
2019-05-26T09:48:16.180Z,1.80
2019-05-26T09:50:46.449Z,1.80
2019-05-26T09:53:16.200Z,1.47
2019-05-26T09:55:46.478Z,1.90
2019-05-26T09:58:16.526Z,1.63
2019-05-26T10:00:47.295Z,1.60
2019-05-26T10:03:17.957Z,1.97
2019-05-26T10:05:47.668Z,2.20
2019-05-26T10:08:18.165Z,1.83
2019-05-26T10:10:47.904Z,1.90
2019-05-26T10:13:30.914Z,2.30
2019-05-26T10:15:49.774Z,2.47
2019-05-26T10:18:20.388Z,2.83
2019-05-26T10:20:50.024Z,2.77
2019-05-26T10:23:20.367Z,2.87
2019-05-26T10:25:49.980Z,2.73
2019-05-26T10:28:22.596Z,3.40
2019-05-26T10:30:52.956Z,2.53
2019-05-26T10:33:22.649Z,2.60
2019-05-26T10:35:52.941Z,2.30
2019-05-26T10:38:22.622Z,2.50
2019-05-26T10:40:52.883Z,2.30
2019-05-26T10:43:22.779Z,2.93
2019-05-26T10:45:53.016Z,2.70
2019-05-26T10:48:22.851Z,3.00
2019-05-26T10:50:53.166Z,2.87
2019-05-26T10:53:23.104Z,2.70
2019-05-26T10:55:53.459Z,3.03
2019-05-26T10:58:23.255Z,2.70
2019-05-26T11:00:53.589Z,3.50
2019-05-26T11:03:23.312Z,2.97
2019-05-26T11:05:53.002Z,2.83
2019-05-26T11:08:22.785Z,2.90
2019-05-26T11:10:53.085Z,2.97
2019-05-26T11:13:23.026Z,2.90
2019-05-26T11:15:52.638Z,2.60
2019-05-26T11:18:23.195Z,2.67
2019-05-26T11:20:53.587Z,2.53
2019-05-26T11:23:23.315Z,2.63
2019-05-26T11:25:52.956Z,2.50
2019-05-26T11:28:22.842Z,2.87
2019-05-26T11:30:53.218Z,2.63
2019-05-26T11:33:23.055Z,3.10
2019-05-26T11:35:53.398Z,2.70
2019-05-26T11:38:23.230Z,2.90
2019-05-26T11:40:53.726Z,3.30
2019-05-26T11:43:23.554Z,3.60
2019-05-26T11:45:57.688Z,3.60
2019-05-26T11:48:27.420Z,3.07
2019-05-26T11:50:57.730Z,2.70
2019-05-26T11:53:27.501Z,3.20
2019-05-26T11:55:57.845Z,3.27
2019-05-26T11:58:28.245Z,3.73
2019-05-26T12:00:57.973Z,4.03
2019-05-26T12:03:27.625Z,4.10
2019-05-26T12:05:57.913Z,4.27
2019-05-26T12:08:28.284Z,4.53
2019-05-26T12:10:58.603Z,5.07
2019-05-26T12:13:28.241Z,5.33
2019-05-26T12:15:58.100Z,5.10
2019-05-26T12:18:27.797Z,4.97
2019-05-26T12:20:58.194Z,4.77
2019-05-26T12:23:28.195Z,5.13
2019-05-26T12:25:58.657Z,4.70
2019-05-26T12:28:28.571Z,5.17
2019-05-26T12:30:58.248Z,5.10
2019-05-26T12:33:28.846Z,5.40
2019-05-26T12:35:58.623Z,5.03
2019-05-26T12:38:29.381Z,5.70
2019-05-26T12:40:59.139Z,5.80
2019-05-26T12:43:28.837Z,5.13
2019-05-26T12:45:58.549Z,5.20
2019-05-26T12:48:29.192Z,6.53
2019-05-26T12:50:58.979Z,5.23
2019-05-26T12:53:29.377Z,5.10
2019-05-26T12:55:59.200Z,4.60
2019-05-26T12:58:29.569Z,5.03
2019-05-26T13:00:59.431Z,4.20
2019-05-26T13:03:30.343Z,4.30
2019-05-26T13:06:00.064Z,4.10
2019-05-26T13:08:29.898Z,5.10
2019-05-26T13:11:00.308Z,4.77
2019-05-26T13:13:30.178Z,4.10
2019-05-26T13:15:59.815Z,3.47
2019-05-26T13:18:29.478Z,3.37
2019-05-26T13:20:59.215Z,3.47
2019-05-26T13:23:28.931Z,4.10
2019-05-26T13:25:59.270Z,4.27
2019-05-26T13:28:29.029Z,4.30
2019-05-26T13:30:59.878Z,4.07
2019-05-26T13:33:29.797Z,4.70
2019-05-26T13:36:00.174Z,4.90
2019-05-26T13:38:30.000Z,5.30
2019-05-26T13:41:00.313Z,5.20
2019-05-26T13:43:30.059Z,4.97
2019-05-26T13:45:59.731Z,5.77
2019-05-26T13:48:29.381Z,5.87
2019-05-26T13:50:59.699Z,6.43
2019-05-26T13:53:29.462Z,6.07
2019-05-26T13:55:59.772Z,5.37
2019-05-26T13:58:29.516Z,4.87
2019-05-26T14:00:59.851Z,5.13
2019-05-26T14:03:29.558Z,4.80
2019-05-26T14:06:01.989Z,5.23
2019-05-26T14:08:32.025Z,4.97
2019-05-26T14:11:02.361Z,4.57
2019-05-26T14:13:32.080Z,4.83
2019-05-26T14:16:02.333Z,4.70
2019-05-26T14:18:37.277Z,4.87
2019-05-26T14:21:09.066Z,4.90
2019-05-26T14:23:38.987Z,4.50
2019-05-26T14:26:08.600Z,4.60
2019-05-26T14:28:39.015Z,5.37
2019-05-26T14:31:08.708Z,4.90
2019-05-26T14:33:38.315Z,4.83
2019-05-26T14:36:09.082Z,5.40
2019-05-26T14:38:43.321Z,5.07
2019-05-26T14:41:10.780Z,4.77
2019-05-26T14:43:41.654Z,4.57
2019-05-26T14:46:12.136Z,4.70
2019-05-26T14:48:42.802Z,5.37
2019-05-26T14:51:15.516Z,5.23
2019-05-26T14:53:45.959Z,5.63
2019-05-26T14:56:16.529Z,5.50
2019-05-26T14:58:46.967Z,5.73
2019-05-26T15:01:17.365Z,5.17
2019-05-26T15:03:47.175Z,5.00
2019-05-26T15:06:16.820Z,5.03
2019-05-26T15:08:46.491Z,5.93
2019-05-26T15:11:16.076Z,5.50
2019-05-26T15:13:45.728Z,5.60
2019-05-26T15:16:15.344Z,5.37
2019-05-26T15:18:45.497Z,5.63
2019-05-26T15:21:18.079Z,5.90
2019-05-26T15:23:48.075Z,5.60
2019-05-26T15:26:17.779Z,5.87
2019-05-26T15:28:47.882Z,5.47
2019-05-26T15:31:18.238Z,6.40
2019-05-26T15:33:48.281Z,4.87
2019-05-26T15:36:18.577Z,5.10
2019-05-26T15:38:48.299Z,5.60
2019-05-26T15:41:18.603Z,6.23
2019-05-26T15:43:48.581Z,5.83
2019-05-26T15:46:25.124Z,6.13
2019-05-26T15:48:51.022Z,5.00
2019-05-26T15:51:21.338Z,5.40
2019-05-26T15:53:51.966Z,5.90
2019-05-26T15:56:21.789Z,6.43
2019-05-26T15:58:51.989Z,6.53
2019-05-26T16:01:22.023Z,5.87
2019-05-26T16:03:53.117Z,5.37
2019-05-26T16:06:23.630Z,6.83
2019-05-26T16:08:54.466Z,6.07
2019-05-26T16:11:25.032Z,6.70
2019-05-26T16:13:55.813Z,6.00
2019-05-26T16:16:40.214Z,7.03
2019-05-26T16:18:58.018Z,6.30
2019-05-26T16:21:28.575Z,6.83
2019-05-26T16:23:58.419Z,6.30
2019-05-26T16:26:28.962Z,6.50
2019-05-26T16:28:59.441Z,6.93
2019-05-26T16:31:30.007Z,6.33
2019-05-26T16:33:59.974Z,7.00
2019-05-26T16:36:29.661Z,6.80
2019-05-26T16:38:59.320Z,7.27
2019-05-26T16:41:29.654Z,6.83
2019-05-26T16:43:59.513Z,7.57
2019-05-26T16:46:30.048Z,8.00
2019-05-26T16:48:59.824Z,6.67
2019-05-26T16:51:30.240Z,7.13
2019-05-26T16:54:00.162Z,8.63
2019-05-26T16:56:29.868Z,8.20
2019-05-26T16:58:59.674Z,8.27
2019-05-26T17:01:29.973Z,8.33
2019-05-26T17:04:00.721Z,7.83
2019-05-26T17:06:31.091Z,8.57
2019-05-26T17:09:00.818Z,8.93
2019-05-26T17:11:30.535Z,8.47
2019-05-26T17:14:00.178Z,9.30
2019-05-26T17:16:29.782Z,8.17
2019-05-26T17:18:59.505Z,8.10
2019-05-26T17:21:29.111Z,9.20
2019-05-26T17:23:58.798Z,9.73
2019-05-26T17:26:28.456Z,9.23
2019-05-26T17:28:58.979Z,9.73
2019-05-26T17:31:31.567Z,9.90
2019-05-26T17:34:01.243Z,9.97
2019-05-26T17:36:30.997Z,9.87
2019-05-26T17:39:04.002Z,10.67
2019-05-26T17:41:33.815Z,10.40
2019-05-26T17:44:04.662Z,10.33
2019-05-26T17:46:34.991Z,11.50
2019-05-26T17:49:05.501Z,10.70
2019-05-26T17:51:35.962Z,10.17
2019-05-26T17:54:06.528Z,10.37
2019-05-26T17:56:36.942Z,10.67
2019-05-26T17:59:06.665Z,10.70
2019-05-26T18:01:38.435Z,10.17
2019-05-26T18:04:08.214Z,11.30
2019-05-26T18:06:37.874Z,10.80
2019-05-26T18:09:09.611Z,11.53
2019-05-26T18:11:39.496Z,11.47
2019-05-26T18:14:09.186Z,11.30
2019-05-26T18:16:39.049Z,10.80
2019-05-26T18:19:09.300Z,11.63
2019-05-26T18:21:40.583Z,11.68
2019-05-26T18:24:10.279Z,11.93
2019-05-26T18:26:40.998Z,12.83
2019-05-26T18:29:11.115Z,12.43
2019-05-26T18:31:42.929Z,11.97
2019-05-26T18:34:14.460Z,12.73
2019-05-26T18:36:45.088Z,12.47
2019-05-26T18:39:15.390Z,13.60
2019-05-26T18:41:45.674Z,13.03
2019-05-26T18:44:15.381Z,12.77
2019-05-26T18:46:45.027Z,13.37
2019-05-26T18:49:14.801Z,13.27
2019-05-26T18:51:45.145Z,13.33
2019-05-26T18:54:14.912Z,14.30
2019-05-26T18:56:45.192Z,14.03
2019-05-26T18:59:16.013Z,13.27
2019-05-26T19:01:46.488Z,13.83
2019-05-26T19:04:16.246Z,14.00
2019-05-26T19:06:46.554Z,14.30
2019-05-26T19:09:17.005Z,14.00
2019-05-26T19:11:47.453Z,13.73
2019-05-26T19:14:17.842Z,14.47
2019-05-26T19:16:48.357Z,13.90
2019-05-26T19:19:18.868Z,15.10
2019-05-26T19:21:48.648Z,14.20
2019-05-26T19:24:19.105Z,14.70
2019-05-26T19:26:48.856Z,15.87
2019-05-26T19:29:19.139Z,14.13
2019-05-26T19:31:48.886Z,13.03
2019-05-26T19:34:19.270Z,10.63
2019-05-26T19:36:48.970Z,9.17
2019-05-26T19:39:18.585Z,8.07
2019-05-26T19:41:48.883Z,8.63
2019-05-26T19:44:19.273Z,9.73
2019-05-26T19:46:52.657Z,8.63
2019-05-26T19:49:20.877Z,9.63
2019-05-26T19:51:50.569Z,10.07
2019-05-26T19:54:20.179Z,8.70
2019-05-26T19:56:49.808Z,8.07
2019-05-26T19:59:20.801Z,10.87
2019-05-26T20:01:51.132Z,8.27
2019-05-26T20:04:21.506Z,8.90
2019-05-26T20:06:51.858Z,10.40
2019-05-26T20:09:22.218Z,10.70
2019-05-26T20:11:52.905Z,13.60
2019-05-26T20:14:22.762Z,13.67
2019-05-26T20:16:53.012Z,15.40
2019-05-26T20:19:22.757Z,17.07
2019-05-26T20:21:53.032Z,17.37
2019-05-26T20:24:22.741Z,18.63
2019-05-26T20:26:52.460Z,18.57
2019-05-26T20:29:22.733Z,19.27
2019-05-26T20:31:53.136Z,19.53
2019-05-26T20:34:22.869Z,19.20
2019-05-26T20:36:53.284Z,19.00
2019-05-26T20:39:23.919Z,19.57
2019-05-26T20:41:54.428Z,19.23
2019-05-26T20:44:24.809Z,20.27
2019-05-26T20:46:55.185Z,19.83
2019-05-26T20:49:24.883Z,21.52
2019-05-26T20:51:55.178Z,19.73
2019-05-26T20:54:24.884Z,19.40
2019-05-26T20:56:55.135Z,18.57
2019-05-26T20:59:25.483Z,18.17
2019-05-26T21:01:55.311Z,20.10
2019-05-26T21:04:25.649Z,18.43
2019-05-26T21:06:55.442Z,19.40
2019-05-26T21:09:25.739Z,18.00
2019-05-26T21:11:55.476Z,17.07
2019-05-26T21:14:25.955Z,17.17
2019-05-26T21:16:55.762Z,19.07
2019-05-26T21:19:25.364Z,17.70
2019-05-26T21:21:55.711Z,17.80
2019-05-26T21:24:25.477Z,19.67
2019-05-26T21:26:55.112Z,19.47
2019-05-26T21:29:25.352Z,19.57
2019-05-26T21:31:55.784Z,19.43
2019-05-26T21:34:25.498Z,19.77
2019-05-26T21:36:55.761Z,19.27
2019-05-26T21:39:26.154Z,20.07
2019-05-26T21:41:55.841Z,20.40
2019-05-26T21:44:25.612Z,18.93
2019-05-26T21:46:55.899Z,19.70
2019-05-26T21:49:25.613Z,18.87
2019-05-26T21:51:55.874Z,18.00
2019-05-26T21:54:25.625Z,17.93
2019-05-26T21:56:55.892Z,18.27
2019-05-26T21:59:25.607Z,19.53
2019-05-26T22:01:55.892Z,19.27
2019-05-26T22:04:25.555Z,17.97
2019-05-26T22:06:55.845Z,18.00
2019-05-26T22:09:25.607Z,17.50
2019-05-26T22:11:55.916Z,16.20
2019-05-26T22:14:26.290Z,16.57
2019-05-26T22:16:56.577Z,16.37
2019-05-26T22:19:26.268Z,17.57
2019-05-26T22:21:56.545Z,16.20
2019-05-26T22:24:27.157Z,15.30
2019-05-26T22:26:57.492Z,17.80
2019-05-26T22:29:27.843Z,17.33
2019-05-26T22:31:57.588Z,16.30
2019-05-26T22:34:27.453Z,16.77
2019-05-26T22:36:57.768Z,15.67
2019-05-26T22:39:28.545Z,18.23
2019-05-26T22:41:58.280Z,16.80
2019-05-26T22:44:28.793Z,15.80
2019-05-26T22:46:59.178Z,16.30
2019-05-26T22:49:30.245Z,16.13
2019-05-26T22:52:00.618Z,16.10
2019-05-26T22:54:30.301Z,18.52
2019-05-26T22:57:00.609Z,17.90
2019-05-26T22:59:30.975Z,17.65
2019-05-26T23:02:01.421Z,19.30
2019-05-26T23:04:31.864Z,19.60
2019-05-26T23:07:02.211Z,19.87
2019-05-26T23:09:32.547Z,21.17
2019-05-26T23:12:02.274Z,20.13
2019-05-26T23:14:32.528Z,21.10
2019-05-26T23:17:02.879Z,20.77
2019-05-26T23:19:33.210Z,21.63
2019-05-26T23:22:03.683Z,21.10
2019-05-26T23:24:34.106Z,21.33
2019-05-26T23:27:04.773Z,21.03
2019-05-26T23:29:35.438Z,20.87
2019-05-26T23:32:05.128Z,20.93
2019-05-26T23:34:35.537Z,20.70
2019-05-26T23:37:06.076Z,22.20
2019-05-26T23:39:36.536Z,21.80
2019-05-26T23:42:06.217Z,22.17
2019-05-26T23:44:37.401Z,20.87
2019-05-26T23:47:07.900Z,20.57
2019-05-26T23:49:37.850Z,22.53
2019-05-26T23:52:07.445Z,20.10
2019-05-26T23:54:37.584Z,21.37
2019-05-26T23:57:07.859Z,20.57
2019-05-26T23:59:38.621Z,22.13
